sensor_id;sensor_type;location;lat;lon;timestamp;temperature;humidity
11284;DHT22;5698;47.332;11.180;2023-08-06T00:01:01;10.30;99.90
11284;DHT22;5698;47.332;11.180;2023-08-06T00:03:28;10.30;99.90
11284;DHT22;5698;47.332;11.180;2023-08-06T00:05:55;10.30;99.90
11284;DHT22;5698;47.332;11.180;2023-08-06T00:08:22;10.30;99.90
11284;DHT22;5698;47.332;11.180;2023-08-06T00:10:49;10.30;99.90
11284;DHT22;5698;47.332;11.180;2023-08-06T00:13:17;10.20;99.90
11284;DHT22;5698;47.332;11.180;2023-08-06T00:15:44;10.20;99.90
11284;DHT22;5698;47.332;11.180;2023-08-06T00:18:11;10.10;99.90
11284;DHT22;5698;47.332;11.180;2023-08-06T00:20:39;10.10;99.90
11284;DHT22;5698;47.332;11.180;2023-08-06T00:23:07;10.00;99.90
11284;DHT22;5698;47.332;11.180;2023-08-06T00:25:34;10.00;99.90
11284;DHT22;5698;47.332;11.180;2023-08-06T00:28:01;10.10;99.90
11284;DHT22;5698;47.332;11.180;2023-08-06T00:30:29;10.10;99.90
11284;DHT22;5698;47.332;11.180;2023-08-06T00:32:56;10.00;99.90
11284;DHT22;5698;47.332;11.180;2023-08-06T00:35:23;10.00;99.90
11284;DHT22;5698;47.332;11.180;2023-08-06T00:37:50;10.00;99.90
11284;DHT22;5698;47.332;11.180;2023-08-06T00:40:20;10.10;99.90
11284;DHT22;5698;47.332;11.180;2023-08-06T00:42:47;10.10;99.90
11284;DHT22;5698;47.332;11.180;2023-08-06T00:45:14;10.10;99.90
11284;DHT22;5698;47.332;11.180;2023-08-06T00:47:43;10.10;99.90
11284;DHT22;5698;47.332;11.180;2023-08-06T00:50:11;10.10;99.90
11284;DHT22;5698;47.332;11.180;2023-08-06T00:52:38;10.10;99.90
11284;DHT22;5698;47.332;11.180;2023-08-06T00:55:06;10.10;99.90
11284;DHT22;5698;47.332;11.180;2023-08-06T00:57:33;10.00;99.90
11284;DHT22;5698;47.332;11.180;2023-08-06T01:00:00;10.00;99.90
11284;DHT22;5698;47.332;11.180;2023-08-06T01:02:28;10.00;99.90
11284;DHT22;5698;47.332;11.180;2023-08-06T01:04:56;9.90;99.90
11284;DHT22;5698;47.332;11.180;2023-08-06T01:07:35;9.90;99.90
11284;DHT22;5698;47.332;11.180;2023-08-06T01:10:23;9.90;99.90
11284;DHT22;5698;47.332;11.180;2023-08-06T01:13:05;9.90;99.90
11284;DHT22;5698;47.332;11.180;2023-08-06T01:15:41;9.90;99.90
11284;DHT22;5698;47.332;11.180;2023-08-06T01:18:09;9.80;99.90
11284;DHT22;5698;47.332;11.180;2023-08-06T01:20:38;9.90;99.90
11284;DHT22;5698;47.332;11.180;2023-08-06T01:23:05;9.80;99.90
11284;DHT22;5698;47.332;11.180;2023-08-06T01:25:35;9.90;99.90
11284;DHT22;5698;47.332;11.180;2023-08-06T01:28:08;9.90;99.90
11284;DHT22;5698;47.332;11.180;2023-08-06T01:30:41;9.80;99.90
11284;DHT22;5698;47.332;11.180;2023-08-06T01:33:14;9.80;99.90
11284;DHT22;5698;47.332;11.180;2023-08-06T01:35:44;9.80;99.90
11284;DHT22;5698;47.332;11.180;2023-08-06T01:38:13;9.80;99.90
11284;DHT22;5698;47.332;11.180;2023-08-06T01:40:39;9.70;99.90
11284;DHT22;5698;47.332;11.180;2023-08-06T01:43:06;9.70;99.90
11284;DHT22;5698;47.332;11.180;2023-08-06T01:45:34;9.70;99.90
11284;DHT22;5698;47.332;11.180;2023-08-06T01:48:00;9.60;99.90
11284;DHT22;5698;47.332;11.180;2023-08-06T01:50:27;9.60;99.90
11284;DHT22;5698;47.332;11.180;2023-08-06T01:52:56;9.60;99.90
11284;DHT22;5698;47.332;11.180;2023-08-06T01:55:23;9.60;99.90
11284;DHT22;5698;47.332;11.180;2023-08-06T01:57:50;9.60;99.90
11284;DHT22;5698;47.332;11.180;2023-08-06T02:00:17;9.70;99.90
11284;DHT22;5698;47.332;11.180;2023-08-06T02:02:43;9.60;99.90
11284;DHT22;5698;47.332;11.180;2023-08-06T02:05:10;9.60;99.90
11284;DHT22;5698;47.332;11.180;2023-08-06T02:07:37;9.50;99.90
11284;DHT22;5698;47.332;11.180;2023-08-06T02:10:07;9.40;99.90
11284;DHT22;5698;47.332;11.180;2023-08-06T02:12:34;9.40;99.90
11284;DHT22;5698;47.332;11.180;2023-08-06T02:15:01;9.30;99.90
11284;DHT22;5698;47.332;11.180;2023-08-06T02:17:28;9.30;99.90
11284;DHT22;5698;47.332;11.180;2023-08-06T02:19:55;9.40;99.90
11284;DHT22;5698;47.332;11.180;2023-08-06T02:22:22;9.40;99.90
11284;DHT22;5698;47.332;11.180;2023-08-06T02:24:49;9.40;99.90
11284;DHT22;5698;47.332;11.180;2023-08-06T02:27:18;9.40;99.90
11284;DHT22;5698;47.332;11.180;2023-08-06T02:29:45;9.40;99.90
11284;DHT22;5698;47.332;11.180;2023-08-06T02:32:12;9.30;99.90
11284;DHT22;5698;47.332;11.180;2023-08-06T02:34:39;9.20;99.90
11284;DHT22;5698;47.332;11.180;2023-08-06T02:37:06;9.20;99.90
11284;DHT22;5698;47.332;11.180;2023-08-06T02:39:33;9.20;99.90
11284;DHT22;5698;47.332;11.180;2023-08-06T02:42:01;9.10;99.90
11284;DHT22;5698;47.332;11.180;2023-08-06T02:44:29;9.10;99.90
11284;DHT22;5698;47.332;11.180;2023-08-06T02:46:56;9.20;99.90
11284;DHT22;5698;47.332;11.180;2023-08-06T02:49:23;9.20;99.90
11284;DHT22;5698;47.332;11.180;2023-08-06T02:51:50;9.20;99.90
11284;DHT22;5698;47.332;11.180;2023-08-06T02:54:17;9.10;99.90
11284;DHT22;5698;47.332;11.180;2023-08-06T02:56:44;9.10;99.90
11284;DHT22;5698;47.332;11.180;2023-08-06T02:59:12;9.10;99.90
11284;DHT22;5698;47.332;11.180;2023-08-06T03:01:40;9.10;99.90
11284;DHT22;5698;47.332;11.180;2023-08-06T03:04:07;9.10;99.90
11284;DHT22;5698;47.332;11.180;2023-08-06T03:06:34;9.10;99.90
11284;DHT22;5698;47.332;11.180;2023-08-06T03:09:01;9.10;99.90
11284;DHT22;5698;47.332;11.180;2023-08-06T03:11:28;9.10;99.90
11284;DHT22;5698;47.332;11.180;2023-08-06T03:13:55;9.20;99.90
11284;DHT22;5698;47.332;11.180;2023-08-06T03:16:22;9.10;99.90
11284;DHT22;5698;47.332;11.180;2023-08-06T03:18:50;9.20;99.90
11284;DHT22;5698;47.332;11.180;2023-08-06T03:21:17;9.20;99.90
11284;DHT22;5698;47.332;11.180;2023-08-06T03:23:46;9.20;99.90
11284;DHT22;5698;47.332;11.180;2023-08-06T03:26:14;9.30;99.90
11284;DHT22;5698;47.332;11.180;2023-08-06T03:28:41;9.20;99.90
11284;DHT22;5698;47.332;11.180;2023-08-06T03:31:08;9.30;99.90
11284;DHT22;5698;47.332;11.180;2023-08-06T03:33:35;9.30;99.90
11284;DHT22;5698;47.332;11.180;2023-08-06T03:36:04;9.30;99.90
11284;DHT22;5698;47.332;11.180;2023-08-06T03:38:31;9.30;99.90
11284;DHT22;5698;47.332;11.180;2023-08-06T03:40:57;9.30;99.90
11284;DHT22;5698;47.332;11.180;2023-08-06T03:43:24;9.30;99.90
11284;DHT22;5698;47.332;11.180;2023-08-06T03:45:51;9.30;99.90
11284;DHT22;5698;47.332;11.180;2023-08-06T03:48:18;9.30;99.90
11284;DHT22;5698;47.332;11.180;2023-08-06T03:50:45;9.30;99.90
11284;DHT22;5698;47.332;11.180;2023-08-06T03:53:13;9.30;99.90
11284;DHT22;5698;47.332;11.180;2023-08-06T03:55:41;9.20;99.90
11284;DHT22;5698;47.332;11.180;2023-08-06T03:58:08;9.20;99.90
11284;DHT22;5698;47.332;11.180;2023-08-06T04:00:35;9.10;99.90
11284;DHT22;5698;47.332;11.180;2023-08-06T04:03:02;9.10;99.90
11284;DHT22;5698;47.332;11.180;2023-08-06T04:05:31;9.00;99.90
11284;DHT22;5698;47.332;11.180;2023-08-06T04:07:58;8.90;99.90
11284;DHT22;5698;47.332;11.180;2023-08-06T04:10:26;8.90;99.90
11284;DHT22;5698;47.332;11.180;2023-08-06T04:12:53;8.90;99.90
11284;DHT22;5698;47.332;11.180;2023-08-06T04:15:20;8.90;99.90
11284;DHT22;5698;47.332;11.180;2023-08-06T04:17:47;8.90;99.90
11284;DHT22;5698;47.332;11.180;2023-08-06T04:20:14;8.80;99.90
11284;DHT22;5698;47.332;11.180;2023-08-06T04:22:41;8.60;99.90
11284;DHT22;5698;47.332;11.180;2023-08-06T04:25:09;8.50;99.90
11284;DHT22;5698;47.332;11.180;2023-08-06T04:27:37;8.30;99.90
11284;DHT22;5698;47.332;11.180;2023-08-06T04:30:07;8.20;99.90
11284;DHT22;5698;47.332;11.180;2023-08-06T04:32:34;8.20;99.90
11284;DHT22;5698;47.332;11.180;2023-08-06T04:35:01;8.10;99.90
11284;DHT22;5698;47.332;11.180;2023-08-06T04:37:28;8.00;99.90
11284;DHT22;5698;47.332;11.180;2023-08-06T04:39:55;8.10;99.90
11284;DHT22;5698;47.332;11.180;2023-08-06T04:42:22;8.10;99.90
11284;DHT22;5698;47.332;11.180;2023-08-06T04:44:51;8.10;99.90
11284;DHT22;5698;47.332;11.180;2023-08-06T04:47:18;8.10;99.90
11284;DHT22;5698;47.332;11.180;2023-08-06T04:49:45;8.10;99.90
11284;DHT22;5698;47.332;11.180;2023-08-06T04:52:12;8.00;99.90
11284;DHT22;5698;47.332;11.180;2023-08-06T04:54:39;8.10;99.90
11284;DHT22;5698;47.332;11.180;2023-08-06T04:57:06;8.20;99.90
11284;DHT22;5698;47.332;11.180;2023-08-06T04:59:33;8.20;99.90
11284;DHT22;5698;47.332;11.180;2023-08-06T05:02:01;8.30;99.90
11284;DHT22;5698;47.332;11.180;2023-08-06T05:04:28;8.30;99.90
11284;DHT22;5698;47.332;11.180;2023-08-06T05:06:55;8.40;99.90
11284;DHT22;5698;47.332;11.180;2023-08-06T05:09:22;8.40;99.90
11284;DHT22;5698;47.332;11.180;2023-08-06T05:11:49;8.50;99.90
11284;DHT22;5698;47.332;11.180;2023-08-06T05:14:16;8.50;99.90
11284;DHT22;5698;47.332;11.180;2023-08-06T05:16:43;8.60;99.90
11284;DHT22;5698;47.332;11.180;2023-08-06T05:19:11;8.60;99.90
11284;DHT22;5698;47.332;11.180;2023-08-06T05:21:38;8.70;99.90
11284;DHT22;5698;47.332;11.180;2023-08-06T05:24:05;8.70;99.90
11284;DHT22;5698;47.332;11.180;2023-08-06T05:26:32;8.70;99.90
11284;DHT22;5698;47.332;11.180;2023-08-06T05:28:59;8.80;99.90
11284;DHT22;5698;47.332;11.180;2023-08-06T05:31:26;8.80;99.90
11284;DHT22;5698;47.332;11.180;2023-08-06T05:33:54;8.90;99.90
11284;DHT22;5698;47.332;11.180;2023-08-06T05:36:22;8.90;99.90
11284;DHT22;5698;47.332;11.180;2023-08-06T05:38:49;9.00;99.90
11284;DHT22;5698;47.332;11.180;2023-08-06T05:41:16;9.00;99.90
11284;DHT22;5698;47.332;11.180;2023-08-06T05:43:43;9.00;99.90
11284;DHT22;5698;47.332;11.180;2023-08-06T05:46:10;9.00;99.90
11284;DHT22;5698;47.332;11.180;2023-08-06T05:48:37;8.90;99.90
11284;DHT22;5698;47.332;11.180;2023-08-06T05:51:04;9.00;99.90
11284;DHT22;5698;47.332;11.180;2023-08-06T05:53:32;9.20;99.90
11284;DHT22;5698;47.332;11.180;2023-08-06T05:55:59;9.30;99.90
11284;DHT22;5698;47.332;11.180;2023-08-06T05:58:26;9.40;99.90
11284;DHT22;5698;47.332;11.180;2023-08-06T06:00:54;9.40;99.90
11284;DHT22;5698;47.332;11.180;2023-08-06T06:03:21;9.40;99.90
11284;DHT22;5698;47.332;11.180;2023-08-06T06:05:48;9.50;99.90
11284;DHT22;5698;47.332;11.180;2023-08-06T06:08:15;9.50;99.90
11284;DHT22;5698;47.332;11.180;2023-08-06T06:10:43;9.60;99.90
11284;DHT22;5698;47.332;11.180;2023-08-06T06:13:10;9.60;99.90
11284;DHT22;5698;47.332;11.180;2023-08-06T06:15:37;9.70;99.90
11284;DHT22;5698;47.332;11.180;2023-08-06T06:18:04;9.80;99.90
11284;DHT22;5698;47.332;11.180;2023-08-06T06:20:32;9.90;99.90
11284;DHT22;5698;47.332;11.180;2023-08-06T06:22:59;9.90;99.90
11284;DHT22;5698;47.332;11.180;2023-08-06T06:25:26;10.00;99.90
11284;DHT22;5698;47.332;11.180;2023-08-06T06:27:54;10.10;99.90
11284;DHT22;5698;47.332;11.180;2023-08-06T06:30:21;10.20;99.90
11284;DHT22;5698;47.332;11.180;2023-08-06T06:32:48;10.20;99.90
11284;DHT22;5698;47.332;11.180;2023-08-06T06:35:15;10.30;99.90
11284;DHT22;5698;47.332;11.180;2023-08-06T06:37:42;10.30;99.90
11284;DHT22;5698;47.332;11.180;2023-08-06T06:40:10;10.40;99.90
11284;DHT22;5698;47.332;11.180;2023-08-06T06:42:37;10.40;99.90
11284;DHT22;5698;47.332;11.180;2023-08-06T06:45:07;10.50;99.90
11284;DHT22;5698;47.332;11.180;2023-08-06T06:47:34;10.50;99.90
11284;DHT22;5698;47.332;11.180;2023-08-06T06:50:01;10.60;99.90
11284;DHT22;5698;47.332;11.180;2023-08-06T06:52:29;10.60;99.90
11284;DHT22;5698;47.332;11.180;2023-08-06T06:54:56;10.60;99.90
11284;DHT22;5698;47.332;11.180;2023-08-06T06:57:23;10.80;99.90
11284;DHT22;5698;47.332;11.180;2023-08-06T06:59:49;10.90;99.90
11284;DHT22;5698;47.332;11.180;2023-08-06T07:02:18;11.00;99.90
11284;DHT22;5698;47.332;11.180;2023-08-06T07:04:45;11.20;99.90
11284;DHT22;5698;47.332;11.180;2023-08-06T07:07:12;11.30;99.90
11284;DHT22;5698;47.332;11.180;2023-08-06T07:09:39;11.50;99.90
11284;DHT22;5698;47.332;11.180;2023-08-06T07:12:06;11.60;99.90
11284;DHT22;5698;47.332;11.180;2023-08-06T07:14:33;11.60;99.90
11284;DHT22;5698;47.332;11.180;2023-08-06T07:17:00;11.60;99.90
11284;DHT22;5698;47.332;11.180;2023-08-06T07:19:29;11.60;99.90
11284;DHT22;5698;47.332;11.180;2023-08-06T07:21:56;11.60;99.90
11284;DHT22;5698;47.332;11.180;2023-08-06T07:24:23;11.70;99.90
11284;DHT22;5698;47.332;11.180;2023-08-06T07:26:49;11.70;99.90
11284;DHT22;5698;47.332;11.180;2023-08-06T07:29:18;11.80;99.90
11284;DHT22;5698;47.332;11.180;2023-08-06T07:31:47;11.80;99.90
11284;DHT22;5698;47.332;11.180;2023-08-06T07:34:15;11.90;99.90
11284;DHT22;5698;47.332;11.180;2023-08-06T07:36:45;11.90;99.90
11284;DHT22;5698;47.332;11.180;2023-08-06T07:39:12;11.90;99.90
11284;DHT22;5698;47.332;11.180;2023-08-06T07:41:39;12.10;99.90
11284;DHT22;5698;47.332;11.180;2023-08-06T07:44:07;12.20;99.90
11284;DHT22;5698;47.332;11.180;2023-08-06T07:46:33;12.30;99.90
11284;DHT22;5698;47.332;11.180;2023-08-06T07:49:00;12.40;99.90
11284;DHT22;5698;47.332;11.180;2023-08-06T07:51:28;12.50;99.90
11284;DHT22;5698;47.332;11.180;2023-08-06T07:53:56;12.50;99.90
11284;DHT22;5698;47.332;11.180;2023-08-06T07:56:23;12.40;99.90
11284;DHT22;5698;47.332;11.180;2023-08-06T07:58:50;12.40;99.90
11284;DHT22;5698;47.332;11.180;2023-08-06T08:01:17;12.40;99.90
11284;DHT22;5698;47.332;11.180;2023-08-06T08:03:44;12.40;99.90
11284;DHT22;5698;47.332;11.180;2023-08-06T08:06:11;12.40;99.90
11284;DHT22;5698;47.332;11.180;2023-08-06T08:08:38;12.30;99.90
11284;DHT22;5698;47.332;11.180;2023-08-06T08:11:07;12.30;99.90
11284;DHT22;5698;47.332;11.180;2023-08-06T08:13:34;12.30;99.90
11284;DHT22;5698;47.332;11.180;2023-08-06T08:16:01;12.20;99.90
11284;DHT22;5698;47.332;11.180;2023-08-06T08:18:28;12.20;99.90
11284;DHT22;5698;47.332;11.180;2023-08-06T08:20:57;12.10;99.90
11284;DHT22;5698;47.332;11.180;2023-08-06T08:23:24;12.20;99.90
11284;DHT22;5698;47.332;11.180;2023-08-06T08:25:51;12.20;99.90
11284;DHT22;5698;47.332;11.180;2023-08-06T08:28:19;12.20;99.90
11284;DHT22;5698;47.332;11.180;2023-08-06T08:30:46;12.10;99.90
11284;DHT22;5698;47.332;11.180;2023-08-06T08:33:13;12.10;99.90
11284;DHT22;5698;47.332;11.180;2023-08-06T08:35:40;12.10;99.90
11284;DHT22;5698;47.332;11.180;2023-08-06T08:38:07;11.90;99.90
11284;DHT22;5698;47.332;11.180;2023-08-06T08:40:39;11.90;99.90
11284;DHT22;5698;47.332;11.180;2023-08-06T08:43:08;11.90;99.90
11284;DHT22;5698;47.332;11.180;2023-08-06T08:45:39;11.90;99.90
11284;DHT22;5698;47.332;11.180;2023-08-06T08:48:06;11.90;99.90
11284;DHT22;5698;47.332;11.180;2023-08-06T08:50:34;11.90;99.90
11284;DHT22;5698;47.332;11.180;2023-08-06T08:53:01;11.80;99.90
11284;DHT22;5698;47.332;11.180;2023-08-06T08:55:28;11.90;99.90
11284;DHT22;5698;47.332;11.180;2023-08-06T08:57:55;12.00;99.90
11284;DHT22;5698;47.332;11.180;2023-08-06T09:00:22;12.10;99.90
11284;DHT22;5698;47.332;11.180;2023-08-06T09:02:51;12.20;99.90
11284;DHT22;5698;47.332;11.180;2023-08-06T09:05:18;12.20;99.90
11284;DHT22;5698;47.332;11.180;2023-08-06T09:07:48;12.30;99.90
11284;DHT22;5698;47.332;11.180;2023-08-06T09:10:16;12.30;99.90
11284;DHT22;5698;47.332;11.180;2023-08-06T09:12:45;12.10;99.90
11284;DHT22;5698;47.332;11.180;2023-08-06T09:15:12;12.00;99.90
11284;DHT22;5698;47.332;11.180;2023-08-06T09:17:39;12.00;99.90
11284;DHT22;5698;47.332;11.180;2023-08-06T09:20:11;11.90;99.90
11284;DHT22;5698;47.332;11.180;2023-08-06T09:22:38;11.90;99.90
11284;DHT22;5698;47.332;11.180;2023-08-06T09:25:07;12.00;99.90
11284;DHT22;5698;47.332;11.180;2023-08-06T09:27:35;11.80;99.90
11284;DHT22;5698;47.332;11.180;2023-08-06T09:30:03;11.70;99.90
11284;DHT22;5698;47.332;11.180;2023-08-06T09:32:45;11.60;99.90
11284;DHT22;5698;47.332;11.180;2023-08-06T09:35:17;11.70;99.90
11284;DHT22;5698;47.332;11.180;2023-08-06T09:37:44;11.80;99.90
11284;DHT22;5698;47.332;11.180;2023-08-06T09:40:27;12.00;99.90
11284;DHT22;5698;47.332;11.180;2023-08-06T09:42:54;12.20;99.90
11284;DHT22;5698;47.332;11.180;2023-08-06T09:45:22;12.50;99.90
11284;DHT22;5698;47.332;11.180;2023-08-06T09:47:49;12.70;99.90
11284;DHT22;5698;47.332;11.180;2023-08-06T09:50:18;12.90;99.90
11284;DHT22;5698;47.332;11.180;2023-08-06T09:52:47;13.10;99.90
11284;DHT22;5698;47.332;11.180;2023-08-06T09:55:14;13.20;99.90
11284;DHT22;5698;47.332;11.180;2023-08-06T09:57:42;13.40;99.90
11284;DHT22;5698;47.332;11.180;2023-08-06T10:00:10;13.60;99.90
11284;DHT22;5698;47.332;11.180;2023-08-06T10:02:38;13.80;99.90
11284;DHT22;5698;47.332;11.180;2023-08-06T10:05:06;13.90;99.90
11284;DHT22;5698;47.332;11.180;2023-08-06T10:07:35;14.00;99.90
11284;DHT22;5698;47.332;11.180;2023-08-06T10:10:05;14.00;99.90
11284;DHT22;5698;47.332;11.180;2023-08-06T10:12:35;14.20;99.90
11284;DHT22;5698;47.332;11.180;2023-08-06T10:15:08;14.20;99.90
11284;DHT22;5698;47.332;11.180;2023-08-06T10:17:37;14.40;99.90
11284;DHT22;5698;47.332;11.180;2023-08-06T10:20:05;14.60;99.90
11284;DHT22;5698;47.332;11.180;2023-08-06T10:22:35;14.90;99.90
11284;DHT22;5698;47.332;11.180;2023-08-06T10:25:03;15.10;99.90
11284;DHT22;5698;47.332;11.180;2023-08-06T10:27:32;15.10;99.90
11284;DHT22;5698;47.332;11.180;2023-08-06T10:30:22;15.20;99.90
11284;DHT22;5698;47.332;11.180;2023-08-06T10:32:50;15.20;99.90
11284;DHT22;5698;47.332;11.180;2023-08-06T10:35:31;15.20;99.90
11284;DHT22;5698;47.332;11.180;2023-08-06T10:38:03;15.20;99.90
11284;DHT22;5698;47.332;11.180;2023-08-06T10:40:31;15.30;99.90
11284;DHT22;5698;47.332;11.180;2023-08-06T10:43:01;15.30;99.90
11284;DHT22;5698;47.332;11.180;2023-08-06T10:45:29;15.20;99.90
11284;DHT22;5698;47.332;11.180;2023-08-06T10:47:57;15.00;99.90
11284;DHT22;5698;47.332;11.180;2023-08-06T10:50:24;14.90;99.90
11284;DHT22;5698;47.332;11.180;2023-08-06T10:52:52;14.90;99.90
11284;DHT22;5698;47.332;11.180;2023-08-06T10:55:24;14.90;99.90
11284;DHT22;5698;47.332;11.180;2023-08-06T10:57:52;14.80;99.90
11284;DHT22;5698;47.332;11.180;2023-08-06T11:00:21;14.70;99.90
11284;DHT22;5698;47.332;11.180;2023-08-06T11:02:48;14.60;99.90
11284;DHT22;5698;47.332;11.180;2023-08-06T11:05:15;14.50;99.90
11284;DHT22;5698;47.332;11.180;2023-08-06T11:07:43;14.30;99.90
11284;DHT22;5698;47.332;11.180;2023-08-06T11:10:12;14.20;99.90
11284;DHT22;5698;47.332;11.180;2023-08-06T11:12:41;14.00;99.90
11284;DHT22;5698;47.332;11.180;2023-08-06T11:15:08;13.80;99.90
11284;DHT22;5698;47.332;11.180;2023-08-06T11:17:37;13.60;99.90
11284;DHT22;5698;47.332;11.180;2023-08-06T11:20:06;13.60;99.90
11284;DHT22;5698;47.332;11.180;2023-08-06T11:22:33;13.60;99.90
11284;DHT22;5698;47.332;11.180;2023-08-06T11:25:02;13.50;99.90
11284;DHT22;5698;47.332;11.180;2023-08-06T11:27:29;13.60;99.90
11284;DHT22;5698;47.332;11.180;2023-08-06T11:29:57;13.80;99.90
11284;DHT22;5698;47.332;11.180;2023-08-06T11:32:24;13.70;99.90
11284;DHT22;5698;47.332;11.180;2023-08-06T11:34:53;13.70;99.90
11284;DHT22;5698;47.332;11.180;2023-08-06T11:37:21;13.70;99.90
11284;DHT22;5698;47.332;11.180;2023-08-06T11:39:50;13.80;99.90
11284;DHT22;5698;47.332;11.180;2023-08-06T11:42:17;13.70;99.90
11284;DHT22;5698;47.332;11.180;2023-08-06T11:44:44;13.50;99.90
11284;DHT22;5698;47.332;11.180;2023-08-06T11:47:15;13.30;99.90
11284;DHT22;5698;47.332;11.180;2023-08-06T11:49:44;13.30;99.90
11284;DHT22;5698;47.332;11.180;2023-08-06T11:52:15;13.00;99.90
11284;DHT22;5698;47.332;11.180;2023-08-06T11:54:44;13.00;99.90
11284;DHT22;5698;47.332;11.180;2023-08-06T11:57:12;13.10;99.90
11284;DHT22;5698;47.332;11.180;2023-08-06T11:59:39;13.40;99.90
11284;DHT22;5698;47.332;11.180;2023-08-06T12:02:08;13.70;99.90
11284;DHT22;5698;47.332;11.180;2023-08-06T12:05:03;13.90;99.90
11284;DHT22;5698;47.332;11.180;2023-08-06T12:07:32;14.10;99.90
11284;DHT22;5698;47.332;11.180;2023-08-06T12:09:59;14.20;99.90
11284;DHT22;5698;47.332;11.180;2023-08-06T12:12:27;14.40;99.90
11284;DHT22;5698;47.332;11.180;2023-08-06T12:14:54;14.60;99.90
11284;DHT22;5698;47.332;11.180;2023-08-06T12:17:22;14.70;99.90
11284;DHT22;5698;47.332;11.180;2023-08-06T12:19:49;14.90;99.90
11284;DHT22;5698;47.332;11.180;2023-08-06T12:22:18;15.10;99.90
11284;DHT22;5698;47.332;11.180;2023-08-06T12:24:46;14.90;99.90
11284;DHT22;5698;47.332;11.180;2023-08-06T12:27:13;15.00;99.90
11284;DHT22;5698;47.332;11.180;2023-08-06T12:29:42;15.20;99.90
11284;DHT22;5698;47.332;11.180;2023-08-06T12:32:09;15.50;99.90
11284;DHT22;5698;47.332;11.180;2023-08-06T12:34:37;15.70;99.90
11284;DHT22;5698;47.332;11.180;2023-08-06T12:37:06;15.90;99.90
11284;DHT22;5698;47.332;11.180;2023-08-06T12:39:35;16.00;99.90
11284;DHT22;5698;47.332;11.180;2023-08-06T12:42:03;16.40;99.90
11284;DHT22;5698;47.332;11.180;2023-08-06T12:44:31;16.50;99.90
11284;DHT22;5698;47.332;11.180;2023-08-06T12:46:58;16.60;99.90
11284;DHT22;5698;47.332;11.180;2023-08-06T12:49:25;16.70;99.90
11284;DHT22;5698;47.332;11.180;2023-08-06T12:51:53;16.70;99.90
11284;DHT22;5698;47.332;11.180;2023-08-06T12:54:20;16.70;99.90
11284;DHT22;5698;47.332;11.180;2023-08-06T12:56:49;16.70;99.90
11284;DHT22;5698;47.332;11.180;2023-08-06T12:59:17;16.70;99.90
11284;DHT22;5698;47.332;11.180;2023-08-06T13:01:44;16.70;99.90
11284;DHT22;5698;47.332;11.180;2023-08-06T13:04:12;16.60;99.90
11284;DHT22;5698;47.332;11.180;2023-08-06T13:06:39;16.60;99.90
11284;DHT22;5698;47.332;11.180;2023-08-06T13:09:06;16.60;99.90
11284;DHT22;5698;47.332;11.180;2023-08-06T13:11:34;16.50;99.90
11284;DHT22;5698;47.332;11.180;2023-08-06T13:14:06;16.40;99.90
11284;DHT22;5698;47.332;11.180;2023-08-06T13:16:34;16.30;99.90
11284;DHT22;5698;47.332;11.180;2023-08-06T13:19:02;16.20;99.90
11284;DHT22;5698;47.332;11.180;2023-08-06T13:21:33;16.10;99.90
11284;DHT22;5698;47.332;11.180;2023-08-06T13:24:01;16.00;99.90
11284;DHT22;5698;47.332;11.180;2023-08-06T13:26:29;15.80;99.90
11284;DHT22;5698;47.332;11.180;2023-08-06T13:28:57;15.70;99.90
11284;DHT22;5698;47.332;11.180;2023-08-06T13:31:26;15.60;99.90
11284;DHT22;5698;47.332;11.180;2023-08-06T13:33:54;15.00;99.90
11284;DHT22;5698;47.332;11.180;2023-08-06T13:36:23;14.60;99.90
11284;DHT22;5698;47.332;11.180;2023-08-06T13:38:50;14.70;99.90
11284;DHT22;5698;47.332;11.180;2023-08-06T13:41:17;14.80;99.90
11284;DHT22;5698;47.332;11.180;2023-08-06T13:43:44;14.80;99.90
11284;DHT22;5698;47.332;11.180;2023-08-06T13:46:11;14.80;99.90
11284;DHT22;5698;47.332;11.180;2023-08-06T13:48:43;14.50;99.90
11284;DHT22;5698;47.332;11.180;2023-08-06T13:51:11;14.50;99.90
11284;DHT22;5698;47.332;11.180;2023-08-06T13:53:38;14.70;99.90
11284;DHT22;5698;47.332;11.180;2023-08-06T13:56:05;14.90;99.90
11284;DHT22;5698;47.332;11.180;2023-08-06T13:58:32;15.10;99.90
11284;DHT22;5698;47.332;11.180;2023-08-06T14:00:59;15.30;99.90
11284;DHT22;5698;47.332;11.180;2023-08-06T14:03:26;15.30;99.90
11284;DHT22;5698;47.332;11.180;2023-08-06T14:05:55;15.30;99.90
11284;DHT22;5698;47.332;11.180;2023-08-06T14:08:22;15.30;99.90
11284;DHT22;5698;47.332;11.180;2023-08-06T14:10:49;15.30;99.90
11284;DHT22;5698;47.332;11.180;2023-08-06T14:13:16;15.40;99.90
11284;DHT22;5698;47.332;11.180;2023-08-06T14:15:43;15.40;99.90
11284;DHT22;5698;47.332;11.180;2023-08-06T14:18:12;15.50;99.90
11284;DHT22;5698;47.332;11.180;2023-08-06T14:20:39;15.60;99.90
11284;DHT22;5698;47.332;11.180;2023-08-06T14:23:08;15.80;99.90
11284;DHT22;5698;47.332;11.180;2023-08-06T14:25:35;15.80;99.90
11284;DHT22;5698;47.332;11.180;2023-08-06T14:28:01;15.80;99.90
11284;DHT22;5698;47.332;11.180;2023-08-06T14:30:28;15.90;99.90
11284;DHT22;5698;47.332;11.180;2023-08-06T14:32:55;15.70;99.90
11284;DHT22;5698;47.332;11.180;2023-08-06T14:35:22;15.70;99.90
11284;DHT22;5698;47.332;11.180;2023-08-06T14:37:49;15.90;99.90
11284;DHT22;5698;47.332;11.180;2023-08-06T14:40:17;16.00;99.90
11284;DHT22;5698;47.332;11.180;2023-08-06T14:42:44;16.00;99.90
11284;DHT22;5698;47.332;11.180;2023-08-06T14:45:11;16.00;99.90
11284;DHT22;5698;47.332;11.180;2023-08-06T14:47:38;16.00;99.90
11284;DHT22;5698;47.332;11.180;2023-08-06T14:50:05;16.00;99.90
11284;DHT22;5698;47.332;11.180;2023-08-06T14:52:32;16.00;99.90
11284;DHT22;5698;47.332;11.180;2023-08-06T14:55:00;15.90;99.90
11284;DHT22;5698;47.332;11.180;2023-08-06T14:57:30;15.80;99.90
11284;DHT22;5698;47.332;11.180;2023-08-06T14:59:57;15.70;99.90
11284;DHT22;5698;47.332;11.180;2023-08-06T15:02:25;15.60;99.90
11284;DHT22;5698;47.332;11.180;2023-08-06T15:04:52;15.60;99.90
11284;DHT22;5698;47.332;11.180;2023-08-06T15:07:19;15.50;99.90
11284;DHT22;5698;47.332;11.180;2023-08-06T15:09:46;15.20;99.90
11284;DHT22;5698;47.332;11.180;2023-08-06T15:12:13;15.10;99.90
11284;DHT22;5698;47.332;11.180;2023-08-06T15:14:42;15.00;99.90
11284;DHT22;5698;47.332;11.180;2023-08-06T15:17:09;15.00;99.90
11284;DHT22;5698;47.332;11.180;2023-08-06T15:19:36;14.90;99.90
11284;DHT22;5698;47.332;11.180;2023-08-06T15:22:03;15.00;99.90
11284;DHT22;5698;47.332;11.180;2023-08-06T15:24:30;14.90;99.90
11284;DHT22;5698;47.332;11.180;2023-08-06T15:26:57;14.90;99.90
11284;DHT22;5698;47.332;11.180;2023-08-06T15:29:24;14.90;99.90
11284;DHT22;5698;47.332;11.180;2023-08-06T15:31:52;14.60;99.90
11284;DHT22;5698;47.332;11.180;2023-08-06T15:34:19;14.50;99.90
11284;DHT22;5698;47.332;11.180;2023-08-06T15:36:46;14.30;99.90
11284;DHT22;5698;47.332;11.180;2023-08-06T15:39:13;14.20;99.90